createdAt,value
2018-04-02T00:00:39.238Z,10.41
2018-04-02T00:03:06.806Z,10.41
2018-04-02T00:05:34.374Z,10.40
2018-04-02T00:08:01.930Z,10.42
2018-04-02T00:10:29.559Z,10.32
2018-04-02T00:12:57.191Z,10.35
2018-04-02T00:15:24.806Z,10.36
2018-04-02T00:17:52.442Z,10.38
2018-04-02T00:20:20.073Z,10.29
2018-04-02T00:22:47.682Z,10.36
2018-04-02T00:25:15.250Z,10.35
2018-04-02T00:27:42.894Z,10.49
2018-04-02T00:30:10.527Z,10.54
2018-04-02T00:32:38.092Z,10.66
2018-04-02T00:35:05.717Z,10.61
2018-04-02T00:37:33.279Z,10.66
2018-04-02T00:40:00.854Z,10.78
2018-04-02T00:42:28.425Z,10.76
2018-04-02T00:44:55.978Z,10.70
2018-04-02T00:47:23.668Z,10.60
2018-04-02T00:49:51.287Z,10.60
2018-04-02T00:52:18.907Z,10.53
2018-04-02T00:54:46.475Z,10.50
2018-04-02T00:57:14.035Z,10.59
2018-04-02T00:59:41.716Z,10.63
2018-04-02T01:02:09.331Z,10.61
2018-04-02T01:04:36.886Z,10.50
2018-04-02T01:07:04.455Z,10.43
2018-04-02T01:09:32.086Z,10.42
2018-04-02T01:11:59.706Z,10.45
2018-04-02T01:14:27.261Z,10.52
2018-04-02T01:16:54.817Z,10.42
2018-04-02T01:19:22.386Z,10.33
2018-04-02T01:21:49.998Z,10.33
2018-04-02T01:24:17.606Z,10.37
2018-04-02T01:26:45.224Z,10.32
2018-04-02T01:29:12.883Z,10.52
2018-04-02T01:31:40.455Z,10.61
2018-04-02T01:34:08.074Z,10.57
2018-04-02T01:36:35.686Z,10.51
2018-04-02T01:39:03.379Z,10.46
2018-04-02T01:41:30.945Z,10.48
2018-04-02T01:43:58.505Z,10.42
2018-04-02T01:46:26.066Z,10.34
2018-04-02T01:48:53.739Z,10.40
2018-04-02T01:51:21.373Z,10.30
2018-04-02T01:53:48.952Z,10.35
2018-04-02T01:56:16.577Z,10.38
2018-04-02T01:58:44.199Z,10.24
2018-04-02T02:01:11.811Z,10.25
2018-04-02T02:03:39.369Z,10.19
2018-04-02T02:06:07.026Z,10.16
2018-04-02T02:08:34.602Z,10.17
2018-04-02T02:11:02.218Z,10.16
2018-04-02T02:13:29.865Z,10.13
2018-04-02T02:15:57.426Z,10.13
2018-04-02T02:18:24.982Z,10.15
2018-04-02T02:20:52.715Z,10.08
2018-04-02T02:23:20.338Z,10.06
2018-04-02T02:25:47.966Z,10.17
2018-04-02T02:28:15.518Z,10.16
2018-04-02T02:30:43.144Z,10.21
2018-04-02T02:33:10.730Z,10.22
2018-04-02T02:35:38.296Z,10.15
2018-04-02T02:38:05.975Z,10.18
2018-04-02T02:40:33.534Z,10.07
2018-04-02T02:43:01.091Z,10.12
2018-04-02T02:45:28.782Z,10.09
2018-04-02T02:47:56.370Z,10.16
2018-04-02T02:50:23.983Z,10.02
2018-04-02T02:52:51.538Z,10.13
2018-04-02T02:55:19.090Z,10.05
2018-04-02T02:57:46.662Z,10.09
2018-04-02T03:00:14.218Z,10.06
2018-04-02T03:02:41.849Z,10.11
2018-04-02T03:05:09.479Z,10.10
2018-04-02T03:07:37.039Z,9.99
2018-04-02T03:10:04.608Z,9.92
2018-04-02T03:12:32.176Z,9.92
2018-04-02T03:14:59.786Z,9.99
2018-04-02T03:17:27.398Z,9.96
2018-04-02T03:19:54.964Z,10.11
2018-04-02T03:22:22.587Z,10.21
2018-04-02T03:24:50.234Z,10.15
2018-04-02T03:27:17.855Z,10.08
2018-04-02T03:29:45.411Z,10.08
2018-04-02T03:32:12.967Z,10.14
2018-04-02T03:34:40.601Z,10.12
2018-04-02T03:37:08.159Z,10.17
2018-04-02T03:39:35.770Z,10.22
2018-04-02T03:42:03.332Z,10.22
2018-04-02T03:44:30.892Z,10.24
2018-04-02T03:46:58.472Z,10.21
2018-04-02T03:49:26.094Z,10.21
2018-04-02T03:51:53.815Z,10.14
2018-04-02T03:54:21.373Z,10.13
2018-04-02T03:56:48.930Z,10.14
2018-04-02T03:59:16.494Z,10.11
2018-04-02T04:01:44.051Z,10.20
2018-04-02T04:04:11.734Z,10.23
2018-04-02T04:06:39.368Z,10.26
2018-04-02T04:09:06.984Z,10.30
2018-04-02T04:11:34.561Z,10.28
2018-04-02T04:14:02.124Z,10.37
2018-04-02T04:16:29.737Z,10.33
2018-04-02T04:18:57.290Z,10.26
2018-04-02T04:21:24.863Z,10.33
2018-04-02T04:23:52.432Z,10.43
2018-04-02T04:26:20.056Z,10.49
2018-04-02T04:28:47.742Z,10.62
2018-04-02T04:31:15.304Z,10.64
2018-04-02T04:33:42.865Z,10.65
2018-04-02T04:36:10.504Z,10.76
2018-04-02T04:38:38.065Z,10.85
2018-04-02T04:41:05.688Z,10.98
2018-04-02T04:43:33.310Z,11.12
2018-04-02T04:46:00.866Z,11.28
2018-04-02T04:48:28.433Z,11.46
2018-04-02T04:50:56.101Z,11.72
2018-04-02T04:53:23.756Z,12.12
2018-04-02T04:55:51.370Z,12.61
2018-04-02T04:58:18.926Z,13.15
2018-04-02T05:00:46.485Z,13.73
2018-04-02T05:03:14.102Z,14.30
2018-04-02T05:05:41.762Z,14.86
2018-04-02T05:08:09.313Z,15.34
2018-04-02T05:10:36.943Z,16.08
2018-04-02T05:13:04.607Z,16.32
2018-04-02T05:15:32.163Z,14.93
2018-04-02T05:17:59.766Z,14.55
2018-04-02T05:20:27.342Z,15.68
2018-04-02T05:22:54.950Z,16.77
2018-04-02T05:25:22.510Z,17.17
2018-04-02T05:27:50.071Z,18.02
2018-04-02T05:30:17.693Z,17.69
2018-04-02T05:32:45.255Z,17.62
2018-04-02T05:35:12.817Z,18.06
2018-04-02T05:37:40.382Z,18.32
2018-04-02T05:40:07.999Z,17.94
2018-04-02T05:42:35.719Z,18.49
2018-04-02T05:45:03.343Z,18.75
2018-04-02T05:47:30.963Z,18.42
2018-04-02T05:49:58.536Z,19.21
2018-04-02T05:52:26.128Z,19.17
2018-04-02T05:54:53.809Z,18.21
2018-04-02T05:57:21.432Z,19.05
2018-04-02T05:59:48.986Z,19.38
2018-04-02T06:02:16.558Z,19.13
2018-04-02T06:04:44.127Z,18.40
2018-04-02T06:07:11.794Z,17.99
2018-04-02T06:09:39.411Z,17.83
2018-04-02T06:12:06.969Z,18.25
2018-04-02T06:14:34.538Z,17.73
2018-04-02T06:17:02.174Z,17.88
2018-04-02T06:19:29.785Z,17.51
2018-04-02T06:21:57.342Z,18.19
2018-04-02T06:24:24.909Z,17.83
2018-04-02T06:26:52.485Z,17.93
2018-04-02T06:29:20.050Z,17.69
2018-04-02T06:31:47.733Z,17.32
2018-04-02T06:34:15.296Z,17.53
2018-04-02T06:36:42.850Z,18.74
2018-04-02T06:39:10.427Z,18.65
2018-04-02T06:41:37.994Z,18.59
2018-04-02T06:44:05.626Z,18.91
2018-04-02T06:46:33.248Z,17.97
2018-04-02T06:49:00.867Z,17.50
2018-04-02T06:51:28.489Z,17.60
2018-04-02T06:53:56.058Z,18.20
2018-04-02T06:56:23.671Z,18.04
2018-04-02T06:58:51.230Z,16.93
2018-04-02T07:01:18.823Z,16.78
2018-04-02T07:03:46.439Z,17.92
2018-04-02T07:06:14.063Z,18.28
2018-04-02T07:08:41.678Z,18.55
2018-04-02T07:11:09.244Z,18.24
2018-04-02T07:13:36.816Z,17.72
2018-04-02T07:16:04.488Z,17.27
2018-04-02T07:18:32.076Z,17.18
2018-04-02T07:20:59.767Z,17.45
2018-04-02T07:23:27.329Z,17.67
2018-04-02T07:25:54.966Z,17.40
2018-04-02T07:28:22.585Z,16.92
2018-04-02T07:30:50.151Z,16.55
2018-04-02T07:33:17.783Z,17.20
2018-04-02T07:35:45.408Z,17.46
2018-04-02T07:38:13.027Z,17.47
2018-04-02T07:40:40.599Z,17.51
2018-04-02T07:43:08.154Z,16.74
2018-04-02T07:45:35.845Z,16.28
2018-04-02T07:48:03.452Z,16.23
2018-04-02T07:50:31.010Z,16.42
2018-04-02T07:52:58.587Z,16.53
2018-04-02T07:55:26.225Z,16.78
2018-04-02T07:57:53.850Z,16.99
2018-04-02T08:00:21.403Z,17.26
2018-04-02T08:02:48.985Z,17.40
2018-04-02T08:05:16.574Z,17.29
2018-04-02T08:07:44.196Z,17.23
2018-04-02T08:10:11.832Z,17.43
2018-04-02T08:12:39.395Z,17.15
2018-04-02T08:15:06.955Z,17.01
2018-04-02T08:17:34.541Z,16.96
2018-04-02T08:20:02.147Z,17.10
2018-04-02T08:22:29.810Z,17.46
2018-04-02T08:24:57.365Z,17.19
2018-04-02T08:27:24.943Z,17.22
2018-04-02T08:29:52.575Z,17.04
2018-04-02T08:32:20.194Z,16.57
2018-04-02T08:34:47.818Z,16.12
2018-04-02T08:37:15.431Z,16.25
2018-04-02T08:39:43.006Z,16.22
2018-04-02T08:42:10.575Z,15.91
2018-04-02T08:44:38.138Z,15.85
2018-04-02T08:47:05.769Z,16.13
2018-04-02T08:49:33.383Z,16.23
2018-04-02T08:52:00.998Z,16.59
2018-04-02T08:54:28.565Z,16.80
2018-04-02T08:56:56.144Z,17.56
2018-04-02T08:59:23.955Z,17.87
2018-04-02T09:01:51.538Z,17.96
2018-04-02T09:04:19.170Z,17.45
2018-04-02T09:06:46.751Z,17.37
2018-04-02T09:09:14.318Z,17.24
2018-04-02T09:11:41.961Z,17.65
2018-04-02T09:14:09.515Z,18.16
2018-04-02T09:16:37.073Z,18.46
2018-04-02T09:19:04.679Z,18.69
2018-04-02T09:21:32.266Z,18.35
2018-04-02T09:23:59.890Z,18.07
2018-04-02T09:26:27.489Z,17.93
2018-04-02T09:28:55.065Z,18.13
2018-04-02T09:31:22.675Z,18.15
2018-04-02T09:33:50.274Z,17.96
2018-04-02T09:36:17.962Z,18.62
2018-04-02T09:38:45.518Z,18.63
2018-04-02T09:41:13.077Z,18.47
2018-04-02T09:43:40.655Z,17.78
2018-04-02T09:46:08.225Z,17.60
2018-04-02T09:48:35.827Z,17.84
2018-04-02T09:51:03.385Z,17.64
2018-04-02T09:53:30.939Z,18.15
2018-04-02T09:55:58.520Z,18.30
2018-04-02T09:58:26.193Z,19.10
2018-04-02T10:00:59.284Z,19.34
2018-04-02T10:03:32.406Z,19.36
2018-04-02T10:06:00.073Z,18.96
2018-04-02T10:08:27.644Z,18.98
2018-04-02T10:10:55.272Z,19.39
2018-04-02T10:13:22.844Z,19.08
2018-04-02T10:15:50.398Z,19.46
2018-04-02T10:18:18.085Z,19.53
2018-04-02T10:20:45.717Z,19.42
2018-04-02T10:23:13.266Z,19.28
2018-04-02T10:25:40.895Z,19.04
2018-04-02T10:28:08.467Z,19.15
2018-04-02T10:30:36.087Z,19.36
2018-04-02T10:33:03.714Z,19.58
2018-04-02T10:35:31.338Z,19.61
2018-04-02T10:37:58.902Z,19.84
2018-04-02T10:40:26.486Z,19.24
2018-04-02T10:42:54.109Z,18.65
2018-04-02T10:45:21.680Z,19.28
2018-04-02T10:47:49.296Z,20.22
2018-04-02T10:50:16.879Z,20.37
2018-04-02T10:52:44.449Z,20.33
2018-04-02T10:55:12.076Z,20.98
2018-04-02T10:57:39.643Z,20.95
2018-04-02T11:00:07.278Z,20.95
2018-04-02T11:02:34.854Z,21.14
2018-04-02T11:05:02.471Z,21.11
2018-04-02T11:07:30.083Z,20.44
2018-04-02T11:09:57.642Z,19.90
2018-04-02T11:12:25.203Z,20.35
2018-04-02T11:14:52.781Z,20.57
2018-04-02T11:17:20.338Z,19.93
2018-04-02T11:19:47.956Z,19.29
2018-04-02T11:22:15.528Z,18.53
2018-04-02T11:24:43.095Z,19.66
2018-04-02T11:27:10.665Z,20.29
2018-04-02T11:29:38.223Z,21.18
2018-04-02T11:32:05.895Z,22.05
2018-04-02T11:34:33.454Z,22.61
2018-04-02T11:37:01.014Z,23.38
2018-04-02T11:39:28.651Z,22.77
2018-04-02T11:41:56.211Z,22.91
2018-04-02T11:44:23.874Z,22.45
2018-04-02T11:46:51.443Z,21.41
2018-04-02T11:49:19.017Z,21.11
2018-04-02T11:51:46.563Z,22.82
2018-04-02T11:54:14.174Z,22.86
2018-04-02T11:56:41.787Z,22.48
2018-04-02T11:59:09.331Z,22.09
2018-04-02T12:01:36.935Z,21.92
2018-04-02T12:04:04.502Z,21.62
2018-04-02T12:06:32.055Z,20.35
2018-04-02T12:08:59.724Z,19.37
2018-04-02T12:11:27.297Z,20.70
2018-04-02T12:13:54.861Z,21.43
2018-04-02T12:16:22.428Z,21.60
2018-04-02T12:18:50.059Z,22.35
2018-04-02T12:21:17.672Z,23.32
2018-04-02T12:23:45.333Z,22.65
2018-04-02T12:26:13.003Z,22.23
2018-04-02T12:28:40.574Z,21.52
2018-04-02T12:31:08.148Z,21.70
2018-04-02T12:33:35.896Z,21.21
2018-04-02T12:36:03.460Z,20.38
2018-04-02T12:38:31.029Z,19.96
2018-04-02T12:40:58.610Z,19.78
2018-04-02T12:43:26.174Z,19.20
2018-04-02T12:45:53.897Z,19.20
2018-04-02T12:48:21.485Z,18.57
2018-04-02T12:50:49.055Z,18.40
2018-04-02T12:53:16.648Z,18.31
2018-04-02T12:55:44.245Z,17.93
2018-04-02T12:58:11.872Z,17.63
2018-04-02T13:00:39.430Z,17.18
2018-04-02T13:03:06.990Z,17.33
2018-04-02T13:05:34.601Z,17.46
2018-04-02T13:08:02.219Z,17.57
2018-04-02T13:10:29.811Z,17.79
2018-04-02T13:12:57.427Z,17.86
2018-04-02T13:15:24.979Z,18.30
2018-04-02T13:17:52.600Z,18.61
2018-04-02T13:20:20.153Z,18.28
2018-04-02T13:22:47.790Z,18.02
2018-04-02T13:25:15.347Z,17.97
2018-04-02T13:27:42.906Z,18.15
2018-04-02T13:30:10.469Z,18.01
2018-04-02T13:32:38.063Z,17.98
2018-04-02T13:35:05.682Z,17.84
2018-04-02T13:37:33.279Z,17.97
2018-04-02T13:40:00.837Z,18.12
2018-04-02T13:42:28.434Z,18.24
2018-04-02T13:44:56.015Z,18.02
2018-04-02T13:47:23.634Z,17.91
2018-04-02T13:49:51.194Z,17.96
2018-04-02T13:52:18.800Z,18.01
2018-04-02T13:54:46.434Z,18.09
2018-04-02T13:57:14.055Z,17.83
2018-04-02T13:59:41.696Z,17.74
2018-04-02T14:02:09.253Z,17.82
2018-04-02T14:04:36.808Z,17.69
2018-04-02T14:07:04.431Z,17.63
2018-04-02T14:09:31.989Z,17.46
2018-04-02T14:11:59.698Z,17.40
2018-04-02T14:14:27.279Z,17.33
2018-04-02T14:16:54.846Z,17.26
2018-04-02T14:19:22.473Z,17.27
2018-04-02T14:21:50.107Z,17.27
2018-04-02T14:24:17.783Z,17.49
2018-04-02T14:26:45.329Z,17.24
2018-04-02T14:29:12.974Z,17.33
2018-04-02T14:31:40.541Z,16.88
2018-04-02T14:34:08.107Z,16.79
2018-04-02T14:36:35.731Z,16.76
2018-04-02T14:39:03.362Z,16.59
2018-04-02T14:41:30.926Z,16.51
2018-04-02T14:43:58.550Z,16.45
2018-04-02T14:46:26.106Z,16.42
2018-04-02T14:48:53.818Z,16.34
2018-04-02T14:51:21.391Z,16.32
2018-04-02T14:53:49.371Z,16.25
2018-04-02T14:56:17.000Z,16.33
2018-04-02T14:58:44.640Z,16.25
2018-04-02T15:01:12.341Z,16.06
2018-04-02T15:03:40.831Z,15.83
2018-04-02T15:06:08.395Z,15.58
2018-04-02T15:08:35.962Z,15.50
2018-04-02T15:11:03.521Z,15.50
2018-04-02T15:13:31.094Z,15.43
2018-04-02T15:15:58.664Z,15.37
2018-04-02T15:18:26.373Z,15.38
2018-04-02T15:20:53.940Z,15.28
2018-04-02T15:23:21.502Z,15.21
2018-04-02T15:25:49.093Z,15.16
2018-04-02T15:28:16.661Z,15.19
2018-04-02T15:30:44.246Z,15.13
2018-04-02T15:33:11.866Z,15.06
2018-04-02T15:35:39.510Z,15.01
2018-04-02T15:38:08.077Z,15.04
2018-04-02T15:40:35.659Z,15.02
2018-04-02T15:43:03.311Z,14.98
2018-04-02T15:45:30.860Z,14.97
2018-04-02T15:47:58.426Z,14.93
2018-04-02T15:50:26.039Z,14.84
2018-04-02T15:52:53.673Z,14.82
2018-04-02T15:55:21.233Z,14.74
2018-04-02T15:57:48.794Z,14.66
2018-04-02T16:00:16.357Z,14.61
2018-04-02T16:02:43.928Z,14.59
2018-04-02T16:05:11.495Z,14.53
2018-04-02T16:07:39.042Z,14.46
2018-04-02T16:10:06.715Z,14.48
2018-04-02T16:12:34.367Z,14.32
2018-04-02T16:15:01.991Z,14.23
2018-04-02T16:17:29.568Z,14.17
2018-04-02T16:19:57.122Z,14.19
2018-04-02T16:22:24.754Z,14.16
2018-04-02T16:24:52.309Z,14.14
2018-04-02T16:27:20.004Z,14.06
2018-04-02T16:29:47.565Z,13.85
2018-04-02T16:32:15.192Z,13.90
2018-04-02T16:34:42.766Z,13.88
2018-04-02T16:37:10.390Z,13.72
2018-04-02T16:39:38.005Z,13.65
2018-04-02T16:42:05.627Z,13.54
2018-04-02T16:44:33.312Z,13.48
2018-04-02T16:47:00.872Z,13.26
2018-04-02T16:49:28.493Z,13.13
2018-04-02T16:51:56.067Z,13.04
2018-04-02T16:54:23.633Z,12.85
2018-04-02T16:56:51.205Z,12.82
2018-04-02T16:59:18.818Z,12.70
2018-04-02T17:01:46.475Z,12.58
2018-04-02T17:04:14.091Z,12.46
2018-04-02T17:06:41.692Z,12.38
2018-04-02T17:09:09.260Z,12.28
2018-04-02T17:11:36.891Z,12.34
2018-04-02T17:14:04.493Z,12.26
2018-04-02T17:16:32.074Z,12.33
2018-04-02T17:18:59.691Z,12.16
2018-04-02T17:21:27.279Z,12.04
2018-04-02T17:23:54.842Z,11.93
2018-04-02T17:26:23.342Z,11.90
2018-04-02T17:28:50.962Z,11.84
2018-04-02T17:31:18.601Z,11.79
2018-04-02T17:33:46.167Z,11.70
2018-04-02T17:36:13.846Z,11.73
2018-04-02T17:38:41.415Z,11.70
2018-04-02T17:41:09.034Z,11.69
2018-04-02T17:43:36.677Z,11.62
2018-04-02T17:46:04.319Z,11.59
2018-04-02T17:48:31.907Z,11.69
2018-04-02T17:50:59.537Z,11.66
2018-04-02T17:53:27.211Z,11.68
2018-04-02T17:55:54.795Z,11.61
2018-04-02T17:58:22.742Z,11.55
2018-04-02T18:00:51.167Z,11.59
2018-04-02T18:03:18.802Z,11.44
2018-04-02T18:05:46.402Z,11.48
2018-04-02T18:08:14.022Z,11.52
2018-04-02T18:10:41.787Z,11.45
2018-04-02T18:13:09.371Z,11.62
2018-04-02T18:15:36.953Z,11.56
2018-04-02T18:18:04.543Z,11.49
2018-04-02T18:20:32.100Z,11.42
2018-04-02T18:22:59.666Z,11.34
2018-04-02T18:25:27.250Z,11.38
2018-04-02T18:27:54.974Z,11.44
2018-04-02T18:30:22.544Z,11.48
2018-04-02T18:32:50.109Z,11.47
2018-04-02T18:35:17.780Z,11.52
2018-04-02T18:37:45.387Z,11.59
2018-04-02T18:40:13.023Z,11.58
2018-04-02T18:42:40.623Z,11.47
2018-04-02T18:45:08.291Z,11.36
2018-04-02T18:47:35.871Z,11.38
2018-04-02T18:50:03.501Z,11.38
2018-04-02T18:52:31.086Z,11.35
2018-04-02T18:54:58.682Z,11.20
2018-04-02T18:57:26.250Z,11.21
2018-04-02T18:59:53.878Z,11.12
2018-04-02T19:02:21.498Z,11.07
2018-04-02T19:04:49.926Z,11.07
2018-04-02T19:07:17.486Z,11.12
2018-04-02T19:09:45.137Z,11.08
2018-04-02T19:12:12.703Z,11.11
2018-04-02T19:14:40.342Z,11.04
2018-04-02T19:17:07.923Z,11.02
2018-04-02T19:19:35.558Z,11.02
2018-04-02T19:22:03.122Z,11.00
2018-04-02T19:24:30.682Z,11.03
2018-04-02T19:26:58.259Z,11.09
2018-04-02T19:29:25.840Z,10.95
2018-04-02T19:31:53.475Z,10.90
2018-04-02T19:34:21.103Z,10.81
2018-04-02T19:36:48.742Z,10.87
2018-04-02T19:39:16.305Z,10.80
2018-04-02T19:41:43.866Z,10.81
2018-04-02T19:44:11.499Z,10.90
2018-04-02T19:46:39.122Z,10.90
2018-04-02T19:49:06.728Z,10.81
2018-04-02T19:51:34.312Z,10.72
2018-04-02T19:54:02.007Z,10.79
2018-04-02T19:56:29.595Z,10.69
2018-04-02T19:58:57.223Z,10.70
2018-04-02T20:01:24.795Z,10.81
2018-04-02T20:03:52.431Z,10.77
2018-04-02T20:06:20.006Z,10.84
2018-04-02T20:08:47.578Z,10.79
2018-04-02T20:11:15.255Z,10.68
2018-04-02T20:13:42.869Z,10.66
2018-04-02T20:16:10.415Z,10.64
2018-04-02T20:18:37.986Z,10.58
2018-04-02T20:21:05.648Z,10.61
2018-04-02T20:23:33.282Z,10.63
2018-04-02T20:26:00.842Z,10.47
2018-04-02T20:28:28.525Z,10.42
2018-04-02T20:30:56.147Z,10.35
2018-04-02T20:33:23.707Z,10.41
2018-04-02T20:35:51.279Z,10.52
2018-04-02T20:38:18.903Z,10.44
2018-04-02T20:40:46.480Z,10.28
2018-04-02T20:43:14.053Z,10.18
2018-04-02T20:45:41.671Z,10.15
2018-04-02T20:48:09.371Z,10.19
2018-04-02T20:50:36.934Z,10.13
2018-04-02T20:53:04.502Z,10.13
2018-04-02T20:55:32.122Z,10.13
2018-04-02T20:57:59.698Z,10.13
2018-04-02T21:00:27.243Z,10.06
2018-04-02T21:02:54.850Z,9.96
2018-04-02T21:05:22.401Z,9.81
2018-04-02T21:07:49.961Z,9.71
2018-04-02T21:10:17.544Z,9.64
2018-04-02T21:12:45.124Z,9.54
2018-04-02T21:15:12.695Z,9.50
2018-04-02T21:17:40.319Z,9.44
2018-04-02T21:20:07.965Z,9.44
2018-04-02T21:22:35.538Z,9.34
2018-04-02T21:25:03.170Z,9.33
2018-04-02T21:27:30.731Z,9.24
2018-04-02T21:29:58.320Z,9.20
2018-04-02T21:32:25.958Z,9.15
2018-04-02T21:34:53.525Z,9.10
2018-04-02T21:37:21.150Z,9.10
2018-04-02T21:39:48.707Z,9.10
2018-04-02T21:42:16.380Z,9.14
2018-04-02T21:44:43.995Z,9.23
2018-04-02T21:47:11.610Z,9.17
2018-04-02T21:49:39.162Z,9.10
2018-04-02T21:52:06.709Z,9.07
2018-04-02T21:54:34.366Z,9.00
2018-04-02T21:57:02.039Z,8.89
2018-04-02T21:59:29.658Z,8.84
2018-04-02T22:01:57.275Z,8.82
2018-04-02T22:04:24.840Z,8.75
2018-04-02T22:07:04.223Z,8.90
2018-04-02T22:09:31.787Z,8.88
2018-04-02T22:11:59.354Z,8.83
2018-04-02T22:14:26.913Z,8.84
2018-04-02T22:16:54.526Z,8.88
2018-04-02T22:19:22.140Z,8.79
2018-04-02T22:21:49.699Z,8.81
2018-04-02T22:24:17.327Z,8.74
2018-04-02T22:26:44.882Z,8.66
2018-04-02T22:29:12.506Z,8.74
2018-04-02T22:31:40.121Z,8.66
2018-04-02T22:34:07.734Z,8.67
2018-04-02T22:36:35.345Z,8.64
2018-04-02T22:39:02.930Z,8.74
2018-04-02T22:41:30.498Z,8.76
2018-04-02T22:43:58.054Z,8.84
2018-04-02T22:46:25.683Z,8.87
2018-04-02T22:48:53.313Z,8.82
2018-04-02T22:51:21.022Z,8.76
2018-04-02T22:53:48.582Z,8.74
2018-04-02T22:56:16.198Z,8.79
2018-04-02T22:58:43.789Z,8.88
